Time;durP1;ratioP1;P1;durP2;ratioP2;P2;SDS_P1;SDS_P2;PMS_P1;PMS_P2;Temp;Humidity;BMP_temperature;BMP_pressure;BME280_temperature;BME280_humidity;BME280_pressure;Samples;Min_cycle;Max_cycle;Signal;HPM_P1;HPM_P2
2022/02/14 00:00:46;;;;;;;7.68;3.75;;;;;;;;;;5008681;28;20129;-67
2022/02/14 00:03:14;;;;;;;6.13;3.40;;;;;;;;;;5007730;28;20054;-67
2022/02/14 00:05:43;;;;;;;8.18;4.10;;;;;;;;;;5008059;28;20474;-67
2022/02/14 00:08:13;;;;;;;6.80;3.13;;;;;;;;;;5006649;28;20056;-67
2022/02/14 00:10:41;;;;;;;8.20;4.47;;;;;;;;;;5008885;28;20100;-67
2022/02/14 00:13:09;;;;;;;11.15;4.10;;;;;;;;;;5008522;28;20133;-67
2022/02/14 00:15:37;;;;;;;8.02;3.50;;;;;;;;;;4995966;28;20045;-67
2022/02/14 00:18:06;;;;;;;6.88;3.03;;;;;;;;;;5008815;28;20112;-67
2022/02/14 00:20:34;;;;;;;11.35;4.03;;;;;;;;;;5004172;28;20096;-67
2022/02/14 00:23:03;;;;;;;6.57;3.75;;;;;;;;;;5006663;28;20045;-67
2022/02/14 00:25:32;;;;;;;6.18;3.30;;;;;;;;;;5017988;28;20129;-67
2022/02/14 00:28:01;;;;;;;6.28;3.03;;;;;;;;;;5006524;28;20140;-67
2022/02/14 00:30:30;;;;;;;7.43;3.65;;;;;;;;;;4998061;28;20080;-67
2022/02/14 00:32:58;;;;;;;7.50;3.50;;;;;;;;;;5008296;28;20565;-67
2022/02/14 00:35:27;;;;;;;8.63;3.17;;;;;;;;;;5008650;28;20096;-67
2022/02/14 00:37:55;;;;;;;8.75;3.00;;;;;;;;;;5007675;28;20042;-67
2022/02/14 00:40:23;;;;;;;8.43;2.65;;;;;;;;;;5007760;28;20426;-67
2022/02/14 00:42:53;;;;;;;9.32;3.10;;;;;;;;;;5008954;28;20073;-67
2022/02/14 00:45:21;;;;;;;5.07;2.40;;;;;;;;;;5002411;28;20128;-67
2022/02/14 00:47:50;;;;;;;8.75;2.90;;;;;;;;;;5005019;28;20437;-67
2022/02/14 00:50:18;;;;;;;5.95;2.08;;;;;;;;;;5004432;28;21319;-67
2022/02/14 00:52:46;;;;;;;5.80;2.63;;;;;;;;;;5007688;28;20061;-67
2022/02/14 00:55:26;;;;;;;3.35;2.15;;;;;;;;;;637683;28;10003147;-67
2022/02/14 00:57:55;;;;;;;5.80;2.55;;;;;;;;;;5007964;28;20354;-67
2022/02/14 01:00:24;;;;;;;5.40;2.45;;;;;;;;;;5007622;28;20413;-67
2022/02/14 01:02:52;;;;;;;7.30;2.25;;;;;;;;;;5003038;28;20120;-67
2022/02/14 01:05:21;;;;;;;4.78;2.13;;;;;;;;;;5010024;28;20674;-67
2022/02/14 01:07:49;;;;;;;7.90;2.63;;;;;;;;;;5010944;28;20046;-67
2022/02/14 01:10:17;;;;;;;3.97;1.95;;;;;;;;;;5013660;28;20085;-67
2022/02/14 01:12:45;;;;;;;3.13;2.28;;;;;;;;;;5013626;28;20104;-67
2022/02/14 01:15:15;;;;;;;3.28;1.73;;;;;;;;;;5011924;28;20462;-67
2022/02/14 01:17:43;;;;;;;4.82;1.88;;;;;;;;;;5011848;28;20062;-67
2022/02/14 01:20:12;;;;;;;2.88;1.92;;;;;;;;;;5007240;28;20912;-67
2022/02/14 01:22:41;;;;;;;3.03;1.63;;;;;;;;;;5011983;28;20089;-67
2022/02/14 01:25:10;;;;;;;2.78;1.60;;;;;;;;;;5011059;28;20046;-67
2022/02/14 01:27:38;;;;;;;2.83;1.42;;;;;;;;;;5011081;28;20081;-67
2022/02/14 01:30:08;;;;;;;6.45;1.73;;;;;;;;;;5012203;28;20498;-67
2022/02/14 01:32:38;;;;;;;3.45;1.77;;;;;;;;;;5008327;28;20056;-67
2022/02/14 01:35:07;;;;;;;5.00;1.42;;;;;;;;;;5007882;28;20053;-67
2022/02/14 01:37:39;;;;;;;4.38;1.50;;;;;;;;;;5003712;28;20129;-67
2022/02/14 01:40:07;;;;;;;6.10;1.20;;;;;;;;;;5011439;28;20136;-67
2022/02/14 01:42:36;;;;;;;4.05;1.95;;;;;;;;;;5009499;28;20074;-67
2022/02/14 01:45:04;;;;;;;3.05;1.20;;;;;;;;;;5011400;28;20081;-67
2022/02/14 01:47:32;;;;;;;2.30;1.40;;;;;;;;;;5010646;28;20072;-67
2022/02/14 01:50:03;;;;;;;8.65;1.60;;;;;;;;;;5010936;28;20062;-67
2022/02/14 01:52:35;;;;;;;2.65;1.10;;;;;;;;;;5010115;28;20581;-66
2022/02/14 01:55:04;;;;;;;2.65;1.33;;;;;;;;;;5011515;28;20084;-67
2022/02/14 01:57:32;;;;;;;2.65;1.23;;;;;;;;;;5002718;28;20064;-67
2022/02/14 02:00:01;;;;;;;3.10;1.33;;;;;;;;;;5011724;28;20140;-67
2022/02/14 02:02:29;;;;;;;3.58;1.38;;;;;;;;;;5008009;28;20042;-67
2022/02/14 02:04:57;;;;;;;3.30;1.25;;;;;;;;;;4997498;28;20125;-67
2022/02/14 02:07:27;;;;;;;2.13;1.45;;;;;;;;;;5010238;28;20585;-67
2022/02/14 02:09:55;;;;;;;2.40;1.50;;;;;;;;;;5004432;28;20045;-67
2022/02/14 02:12:23;;;;;;;2.53;1.35;;;;;;;;;;5022024;28;20133;-67
2022/02/14 02:14:52;;;;;;;3.42;1.30;;;;;;;;;;5011144;28;20129;-67
2022/02/14 02:17:20;;;;;;;2.15;1.17;;;;;;;;;;5008502;28;20144;-67
2022/02/14 02:19:48;;;;;;;1.83;1.05;;;;;;;;;;5010640;28;20132;-67
2022/02/14 02:22:17;;;;;;;2.22;1.02;;;;;;;;;;5011355;28;20152;-67
2022/02/14 02:24:48;;;;;;;3.05;1.10;;;;;;;;;;5011654;28;20471;-67
2022/02/14 02:27:16;;;;;;;2.05;0.93;;;;;;;;;;5004698;28;20375;-67
2022/02/14 02:29:44;;;;;;;1.77;1.10;;;;;;;;;;5010155;28;20052;-67
2022/02/14 02:32:13;;;;;;;2.05;0.95;;;;;;;;;;5005742;28;20078;-67
2022/02/14 02:34:43;;;;;;;2.95;1.17;;;;;;;;;;5003784;28;20081;-67
2022/02/14 02:37:12;;;;;;;1.85;1.00;;;;;;;;;;5008822;28;20410;-67
2022/02/14 02:39:41;;;;;;;1.52;0.80;;;;;;;;;;5011036;28;20133;-67
2022/02/14 02:42:12;;;;;;;2.45;0.77;;;;;;;;;;5009844;28;20053;-67
2022/02/14 02:44:41;;;;;;;2.88;1.13;;;;;;;;;;5007815;28;20054;-67
2022/02/14 02:47:10;;;;;;;3.58;1.20;;;;;;;;;;5011060;28;20137;-67
2022/02/14 02:49:39;;;;;;;2.45;0.90;;;;;;;;;;5010189;28;20523;-67
2022/02/14 02:52:09;;;;;;;0.82;0.70;;;;;;;;;;5010531;28;20516;-67
2022/02/14 02:54:37;;;;;;;4.40;1.23;;;;;;;;;;5009772;28;20079;-67
2022/02/14 02:57:06;;;;;;;4.55;0.77;;;;;;;;;;5009399;28;20125;-67
2022/02/14 02:59:42;;;;;;;2.13;1.25;;;;;;;;;;5007720;28;20501;-67
2022/02/14 03:02:10;;;;;;;1.50;0.85;;;;;;;;;;5009050;28;20141;-67
2022/02/14 03:04:38;;;;;;;2.38;0.90;;;;;;;;;;5009981;28;20133;-67
2022/02/14 03:07:07;;;;;;;1.63;0.90;;;;;;;;;;5010410;28;20136;-67
2022/02/14 03:09:35;;;;;;;1.52;1.00;;;;;;;;;;5010249;28;20053;-67
2022/02/14 03:12:04;;;;;;;2.50;0.77;;;;;;;;;;5008505;28;20564;-67
2022/02/14 03:14:32;;;;;;;2.10;0.90;;;;;;;;;;5008861;28;20462;-67
2022/02/14 03:17:02;;;;;;;2.80;0.90;;;;;;;;;;5007999;28;20136;-67
2022/02/14 03:19:30;;;;;;;3.58;1.02;;;;;;;;;;5008198;28;20072;-66
2022/02/14 03:21:58;;;;;;;2.05;1.13;;;;;;;;;;5009814;28;20466;-67
2022/02/14 03:24:27;;;;;;;2.13;0.82;;;;;;;;;;5009928;28;20042;-67
2022/02/14 03:26:55;;;;;;;1.27;0.80;;;;;;;;;;5008892;28;20534;-67
2022/02/14 03:29:23;;;;;;;1.13;0.70;;;;;;;;;;5008629;28;20046;-67
2022/02/14 03:31:52;;;;;;;2.72;0.85;;;;;;;;;;5007388;28;20501;-66
2022/02/14 03:34:22;;;;;;;1.42;0.90;;;;;;;;;;5004252;28;20487;-67
2022/02/14 03:36:50;;;;;;;1.70;0.90;;;;;;;;;;5005906;28;20125;-67
2022/02/14 03:39:18;;;;;;;1.55;1.00;;;;;;;;;;5004219;28;20524;-67
2022/02/14 03:41:47;;;;;;;0.70;0.70;;;;;;;;;;5010227;28;20050;-67
2022/02/14 03:44:15;;;;;;;3.15;0.80;;;;;;;;;;5008175;28;20041;-67
2022/02/14 03:46:43;;;;;;;0.80;0.80;;;;;;;;;;5008332;28;20077;-66
2022/02/14 03:49:12;;;;;;;1.55;0.90;;;;;;;;;;5007568;28;20060;-67
2022/02/14 03:51:43;;;;;;;1.48;0.80;;;;;;;;;;5001512;28;20046;-67
2022/02/14 03:54:11;;;;;;;7.50;1.02;;;;;;;;;;5006886;28;20046;-67
2022/02/14 03:56:42;;;;;;;1.88;0.95;;;;;;;;;;5008607;28;20116;-66
2022/02/14 03:59:10;;;;;;;1.95;0.88;;;;;;;;;;5006332;28;20148;-67
2022/02/14 04:01:38;;;;;;;0.85;0.70;;;;;;;;;;5006195;28;20042;-67
2022/02/14 04:04:07;;;;;;;0.95;0.65;;;;;;;;;;5006775;28;20474;-67
2022/02/14 04:06:35;;;;;;;1.65;1.05;;;;;;;;;;5006921;28;20126;-67
2022/02/14 04:09:05;;;;;;;3.80;0.80;;;;;;;;;;5005014;28;20065;-67
2022/02/14 04:11:33;;;;;;;0.80;0.73;;;;;;;;;;5007589;28;20045;-67
2022/02/14 04:14:02;;;;;;;2.53;0.70;;;;;;;;;;5006987;28;20038;-67
2022/02/14 04:16:30;;;;;;;2.55;1.05;;;;;;;;;;5006349;28;20046;-67
2022/02/14 04:18:58;;;;;;;1.83;0.60;;;;;;;;;;5006999;28;20042;-67
2022/02/14 04:21:28;;;;;;;1.05;0.68;;;;;;;;;;5007171;28;20100;-67
2022/02/14 04:23:56;;;;;;;1.20;0.73;;;;;;;;;;5006060;28;20136;-67
2022/02/14 04:26:26;;;;;;;4.82;1.10;;;;;;;;;;5006183;28;20053;-67
2022/02/14 04:28:54;;;;;;;2.67;0.57;;;;;;;;;;5005974;28;20050;-67
2022/02/14 04:31:22;;;;;;;1.23;1.15;;;;;;;;;;5007074;28;20042;-66
2022/02/14 04:33:50;;;;;;;0.90;0.73;;;;;;;;;;5007756;28;20133;-66
2022/02/14 04:36:37;;;;;;;0.53;0.40;;;;;;;;;;1939521;28;10022769;-67
2022/02/14 04:39:05;;;;;;;1.67;0.95;;;;;;;;;;3958107;28;10001177;-67
2022/02/14 04:41:35;;;;;;;3.00;1.88;;;;;;;;;;5012731;28;20116;-67
2022/02/14 04:44:03;;;;;;;1.38;0.80;;;;;;;;;;5008249;28;20108;-67
2022/02/14 04:46:32;;;;;;;1.17;0.75;;;;;;;;;;5006758;28;20453;-67
2022/02/14 04:49:00;;;;;;;3.63;0.88;;;;;;;;;;5011851;28;20129;-67
2022/02/14 04:51:28;;;;;;;2.38;1.25;;;;;;;;;;5012764;28;20049;-67
2022/02/14 04:53:56;;;;;;;2.00;1.00;;;;;;;;;;5012584;28;20123;-66
2022/02/14 04:56:25;;;;;;;1.52;0.88;;;;;;;;;;5011994;28;20042;-66
2022/02/14 04:58:54;;;;;;;1.45;1.10;;;;;;;;;;5010120;28;20401;-68
2022/02/14 05:01:23;;;;;;;2.15;1.25;;;;;;;;;;5009394;28;20098;-67
2022/02/14 05:03:51;;;;;;;1.05;0.70;;;;;;;;;;5011610;28;20132;-67
2022/02/14 05:06:21;;;;;;;0.82;0.63;;;;;;;;;;5012511;28;20128;-67
2022/02/14 05:08:49;;;;;;;3.30;1.33;;;;;;;;;;5012088;28;20133;-67
2022/02/14 05:11:18;;;;;;;0.52;0.52;;;;;;;;;;5012545;28;20088;-67
2022/02/14 05:13:46;;;;;;;1.65;1.30;;;;;;;;;;5012246;28;20049;-67
2022/02/14 05:16:15;;;;;;;2.38;0.75;;;;;;;;;;5009551;28;20120;-67
2022/02/14 05:18:44;;;;;;;3.00;0.80;;;;;;;;;;5008532;28;20046;-67
2022/02/14 05:21:12;;;;;;;1.63;1.00;;;;;;;;;;5009283;28;20145;-67
2022/02/14 05:23:40;;;;;;;1.75;0.75;;;;;;;;;;5011175;28;20089;-67
2022/02/14 05:26:18;;;;;;;1.80;0.90;;;;;;;;;;5010043;28;20108;-67
2022/02/14 05:28:46;;;;;;;4.03;1.13;;;;;;;;;;5009830;28;20053;-67
2022/02/14 05:31:16;;;;;;;1.00;0.70;;;;;;;;;;5010794;28;20045;-67
2022/02/14 05:33:44;;;;;;;3.05;0.88;;;;;;;;;;5003912;28;20090;-67
2022/02/14 05:36:15;;;;;;;3.30;1.20;;;;;;;;;;5009258;28;20606;-67
2022/02/14 05:38:44;;;;;;;5.45;0.90;;;;;;;;;;5009850;28;20046;-67
2022/02/14 05:41:12;;;;;;;1.55;0.68;;;;;;;;;;5009969;28;20046;-66
2022/02/14 05:43:41;;;;;;;2.10;0.80;;;;;;;;;;5012484;28;20073;-66
2022/02/14 05:46:14;;;;;;;1.65;1.05;;;;;;;;;;5010116;28;20046;-68
2022/02/14 05:48:44;;;;;;;1.05;0.80;;;;;;;;;;5005398;28;20069;-67
2022/02/14 05:51:16;;;;;;;2.13;0.73;;;;;;;;;;5008602;28;20621;-67
2022/02/14 05:53:45;;;;;;;2.72;1.00;;;;;;;;;;5009863;28;20552;-67
2022/02/14 05:56:15;;;;;;;3.20;0.80;;;;;;;;;;5012793;28;20538;-68
2022/02/14 05:58:43;;;;;;;2.20;1.17;;;;;;;;;;5011584;28;20392;-67
2022/02/14 06:01:14;;;;;;;5.60;1.25;;;;;;;;;;5011216;28;20069;-67
2022/02/14 06:03:44;;;;;;;1.50;0.88;;;;;;;;;;5007695;28;20136;-67
2022/02/14 06:06:12;;;;;;;1.70;0.70;;;;;;;;;;5019037;28;20136;-67
2022/02/14 06:08:41;;;;;;;3.05;1.02;;;;;;;;;;5004826;28;20049;-67
2022/02/14 06:11:12;;;;;;;1.08;0.65;;;;;;;;;;5000566;28;20149;-67
2022/02/14 06:13:40;;;;;;;1.90;0.88;;;;;;;;;;5009779;28;20073;-67
2022/02/14 06:16:12;;;;;;;2.80;1.08;;;;;;;;;;5010449;28;20121;-67
2022/02/14 06:18:40;;;;;;;4.82;1.00;;;;;;;;;;5010333;28;20490;-67
2022/02/14 06:21:16;;;;;;;1.02;0.80;;;;;;;;;;5006761;28;20042;-67
2022/02/14 06:23:44;;;;;;;3.15;1.23;;;;;;;;;;5006368;28;20052;-67
2022/02/14 06:26:15;;;;;;;3.80;1.05;;;;;;;;;;5010222;28;20050;-67
2022/02/14 06:28:44;;;;;;;2.15;1.00;;;;;;;;;;5011517;28;20494;-67
2022/02/14 06:31:12;;;;;;;1.40;0.82;;;;;;;;;;5010387;28;20136;-68
2022/02/14 06:33:44;;;;;;;3.28;1.00;;;;;;;;;;5010886;28;20050;-67
2022/02/14 06:36:21;;;;;;;2.47;1.27;;;;;;;;;;5006996;28;20128;-67
2022/02/14 06:38:49;;;;;;;6.38;1.10;;;;;;;;;;5011728;28;20045;-68
2022/02/14 06:41:18;;;;;;;5.28;1.02;;;;;;;;;;5009850;28;20050;-67
2022/02/14 06:43:46;;;;;;;4.90;0.93;;;;;;;;;;5010419;28;20145;-67
2022/02/14 06:46:15;;;;;;;4.35;0.80;;;;;;;;;;5010316;28;20057;-67
2022/02/14 06:48:43;;;;;;;2.20;1.30;;;;;;;;;;5005518;28;20060;-67
2022/02/14 06:51:14;;;;;;;2.90;0.93;;;;;;;;;;5010717;28;20074;-68
2022/02/14 06:53:44;;;;;;;1.27;1.10;;;;;;;;;;5011743;28;20129;-67
2022/02/14 06:56:13;;;;;;;1.42;0.90;;;;;;;;;;5011100;28;20069;-67
2022/02/14 06:58:43;;;;;;;1.95;0.90;;;;;;;;;;5010438;28;20069;-67
2022/02/14 07:01:13;;;;;;;2.70;1.13;;;;;;;;;;5010275;28;20080;-67
2022/02/14 07:03:41;;;;;;;1.23;0.80;;;;;;;;;;5010018;28;20126;-68
2022/02/14 07:06:14;;;;;;;1.85;1.20;;;;;;;;;;5009398;28;20081;-68
2022/02/14 07:08:44;;;;;;;1.35;0.90;;;;;;;;;;5011700;28;20081;-68
2022/02/14 07:11:16;;;;;;;3.78;1.20;;;;;;;;;;5010646;28;20049;-68
2022/02/14 07:13:45;;;;;;;2.10;1.13;;;;;;;;;;5010331;28;20096;-68
2022/02/14 07:16:13;;;;;;;2.95;1.23;;;;;;;;;;5006249;28;20092;-68
2022/02/14 07:18:43;;;;;;;2.60;1.35;;;;;;;;;;4963209;28;20062;-68
2022/02/14 07:21:16;;;;;;;2.60;1.14;;;;;;;;;;314093;28;10022811;-67
2022/02/14 07:23:45;;;;;;;1.67;1.10;;;;;;;;;;5014830;28;20053;-68
2022/02/14 07:26:13;;;;;;;6.30;1.30;;;;;;;;;;5024025;28;20076;-67
2022/02/14 07:28:46;;;;;;;7.40;1.20;;;;;;;;;;5009782;28;20585;-68
2022/02/14 07:31:15;;;;;;;6.38;1.50;;;;;;;;;;5013808;28;20046;-68
2022/02/14 07:33:43;;;;;;;4.43;1.23;;;;;;;;;;5010333;28;20077;-68
2022/02/14 07:36:15;;;;;;;4.63;1.35;;;;;;;;;;5007820;28;20045;-68
2022/02/14 07:38:43;;;;;;;2.70;1.00;;;;;;;;;;5006893;28;20080;-68
2022/02/14 07:41:14;;;;;;;4.57;1.30;;;;;;;;;;5007790;28;20049;-68
2022/02/14 07:43:43;;;;;;;9.15;1.38;;;;;;;;;;5009711;28;20104;-68
2022/02/14 07:46:21;;;;;;;7.00;1.30;;;;;;;;;;5009593;28;20103;-68
2022/02/14 07:48:50;;;;;;;2.33;1.10;;;;;;;;;;5010622;28;20046;-69
2022/02/14 07:51:19;;;;;;;11.25;1.30;;;;;;;;;;5002448;28;20125;-67
2022/02/14 07:53:47;;;;;;;6.10;1.83;;;;;;;;;;5020846;28;20420;-67
2022/02/14 07:56:16;;;;;;;11.82;1.70;;;;;;;;;;5007676;28;20073;-67
2022/02/14 07:58:49;;;;;;;4.82;1.20;;;;;;;;;;5008244;28;20154;-68
2022/02/14 08:01:18;;;;;;;6.30;1.45;;;;;;;;;;5010142;28;20050;-68
2022/02/14 08:03:48;;;;;;;12.05;1.40;;;;;;;;;;5009588;28;20112;-69
2022/02/14 08:06:31;;;;;;;7.90;1.42;;;;;;;;;;5007035;28;20387;-68
2022/02/14 08:09:00;;;;;;;5.90;1.25;;;;;;;;;;5009931;28;20420;-68
2022/02/14 08:11:29;;;;;;;5.10;1.52;;;;;;;;;;5008804;28;20045;-69
2022/02/14 08:13:58;;;;;;;2.25;1.15;;;;;;;;;;5006863;28;20061;-68
2022/02/14 08:16:27;;;;;;;2.38;1.20;;;;;;;;;;5003044;28;20413;-68
2022/02/14 08:18:59;;;;;;;6.22;1.60;;;;;;;;;;5003681;28;20173;-69
2022/02/14 08:21:29;;;;;;;6.20;1.30;;;;;;;;;;5010583;28;20112;-68
2022/02/14 08:23:58;;;;;;;6.45;1.50;;;;;;;;;;5006821;28;20096;-68
2022/02/14 08:26:38;;;;;;;5.17;1.25;;;;;;;;;;3861674;28;10020759;-68
2022/02/14 08:29:06;;;;;;;2.33;0.90;;;;;;;;;;2065488;28;10002057;-68
2022/02/14 08:31:35;;;;;;;2.42;1.10;;;;;;;;;;5008576;28;20046;-69
2022/02/14 08:34:05;;;;;;;7.20;1.30;;;;;;;;;;5008648;28;20494;-69
2022/02/14 08:36:34;;;;;;;11.88;1.30;;;;;;;;;;5006667;28;20558;-68
2022/02/14 08:39:03;;;;;;;4.05;1.27;;;;;;;;;;5004272;28;20505;-68
2022/02/14 08:41:38;;;;;;;5.20;1.20;;;;;;;;;;5005888;28;20085;-69
2022/02/14 08:44:07;;;;;;;1.40;0.85;;;;;;;;;;5009786;28;20151;-68
2022/02/14 08:46:36;;;;;;;2.85;1.48;;;;;;;;;;5005958;28;20053;-69
2022/02/14 08:49:06;;;;;;;6.07;1.55;;;;;;;;;;5006975;28;20045;-69
2022/02/14 08:51:35;;;;;;;2.65;1.15;;;;;;;;;;5008796;28;20056;-69
2022/02/14 08:54:04;;;;;;;3.83;1.60;;;;;;;;;;5009388;28;20088;-68
2022/02/14 08:56:33;;;;;;;5.18;1.20;;;;;;;;;;5008221;28;20068;-68
2022/02/14 08:59:02;;;;;;;4.05;1.20;;;;;;;;;;5006935;28;20064;-68
2022/02/14 09:01:31;;;;;;;3.83;1.42;;;;;;;;;;5008975;28;20050;-68
2022/02/14 09:04:00;;;;;;;4.50;1.08;;;;;;;;;;5008583;28;20081;-68
2022/02/14 09:06:31;;;;;;;2.53;1.20;;;;;;;;;;5008267;28;20104;-69
2022/02/14 09:09:21;;;;;;;6.95;1.55;;;;;;;;;;5002295;28;20046;-69
2022/02/14 09:11:50;;;;;;;2.22;1.27;;;;;;;;;;5003647;28;20046;-67
2022/02/14 09:14:19;;;;;;;1.45;1.00;;;;;;;;;;5005136;28;20115;-69
2022/02/14 09:16:49;;;;;;;2.83;1.00;;;;;;;;;;5005937;28;20453;-69
2022/02/14 09:19:18;;;;;;;3.78;1.30;;;;;;;;;;5005972;28;20513;-69
2022/02/14 09:21:48;;;;;;;2.00;1.02;;;;;;;;;;5007005;28;20501;-68
2022/02/14 09:24:17;;;;;;;1.45;0.93;;;;;;;;;;5006404;28;20108;-68
2022/02/14 09:26:47;;;;;;;1.80;1.08;;;;;;;;;;5008166;28;20049;-68
2022/02/14 09:29:16;;;;;;;5.90;1.15;;;;;;;;;;5010431;28;20069;-67
2022/02/14 09:31:45;;;;;;;3.63;1.08;;;;;;;;;;5008899;28;20137;-68
2022/02/14 09:34:14;;;;;;;7.28;1.25;;;;;;;;;;5010404;28;20081;-69
2022/02/14 09:36:43;;;;;;;3.42;0.93;;;;;;;;;;5011338;28;20046;-68
2022/02/14 09:39:12;;;;;;;8.57;1.17;;;;;;;;;;5008057;28;20052;-68
2022/02/14 09:42:01;;;;;;;;;;;;;;;;;;2979212;28;10002031;-68
2022/02/14 09:44:30;;;;;;;2.63;1.20;;;;;;;;;;3283172;28;10001269;-68
2022/02/14 09:46:59;;;;;;;2.80;1.00;;;;;;;;;;5009909;28;20136;-68
2022/02/14 09:49:31;;;;;;;1.48;0.90;;;;;;;;;;5022695;28;20847;-68
2022/02/14 09:52:00;;;;;;;3.97;1.20;;;;;;;;;;5009937;28;20448;-69
2022/02/14 09:54:30;;;;;;;2.22;1.00;;;;;;;;;;5011274;28;20046;-69
2022/02/14 09:56:59;;;;;;;4.53;1.13;;;;;;;;;;5009885;28;20042;-69
2022/02/14 09:59:28;;;;;;;2.72;1.10;;;;;;;;;;4979406;28;20132;-68
2022/02/14 10:01:57;;;;;;;1.70;0.93;;;;;;;;;;4988390;28;20343;-68
2022/02/14 10:04:25;;;;;;;7.72;1.00;;;;;;;;;;4989845;28;20038;-69
2022/02/14 10:07:10;;;;;;;3.00;1.00;;;;;;;;;;4991367;28;20138;-69
2022/02/14 10:09:40;;;;;;;3.30;0.90;;;;;;;;;;4990227;28;20051;-70
2022/02/14 10:12:11;;;;;;;3.80;0.90;;;;;;;;;;4991156;28;20054;-70
2022/02/14 10:14:40;;;;;;;2.45;1.15;;;;;;;;;;4991083;28;20276;-70
2022/02/14 10:17:14;;;;;;;2.67;1.23;;;;;;;;;;4991491;28;20097;-70
2022/02/14 10:19:56;;;;;;;2.60;1.00;;;;;;;;;;4987931;28;20057;-70
2022/02/14 10:22:26;;;;;;;3.47;1.10;;;;;;;;;;4984176;28;20058;-70
2022/02/14 10:24:56;;;;;;;1.73;0.90;;;;;;;;;;4991896;28;20065;-70
2022/02/14 10:27:31;;;;;;;1.10;0.77;;;;;;;;;;4976897;28;20046;-70
2022/02/14 10:30:08;;;;;;;2.25;1.00;;;;;;;;;;4991250;28;20054;-70
2022/02/14 10:32:50;;;;;;;3.83;0.95;;;;;;;;;;4991284;28;20046;-70
2022/02/14 10:35:47;;;;;;;1.03;0.75;;;;;;;;;;1185540;28;10022693;-71
2022/02/14 10:38:22;;;;;;;3.28;1.02;;;;;;;;;;4650871;28;10001961;-70
2022/02/14 10:40:53;;;;;;;1.25;0.80;;;;;;;;;;4992013;28;20121;-70
2022/02/14 10:43:28;;;;;;;2.92;1.00;;;;;;;;;;4987450;28;20047;-70
2022/02/14 10:45:57;;;;;;;4.63;1.38;;;;;;;;;;4989313;28;20085;-70
2022/02/14 10:48:37;;;;;;;2.00;0.80;;;;;;;;;;4991055;28;20054;-70
2022/02/14 10:51:22;;;;;;;2.40;1.13;;;;;;;;;;4997716;28;20069;-70
2022/02/14 10:53:52;;;;;;;2.50;0.93;;;;;;;;;;4990516;28;20503;-70
2022/02/14 10:56:24;;;;;;;5.55;1.10;;;;;;;;;;4989948;28;20517;-71
2022/02/14 10:59:08;;;;;;;1.92;0.82;;;;;;;;;;5005192;28;20442;-70
2022/02/14 11:01:38;;;;;;;3.63;0.98;;;;;;;;;;5007938;28;20082;-70
2022/02/14 11:04:08;;;;;;;1.30;0.88;;;;;;;;;;5011060;28;20054;-70
2022/02/14 11:06:38;;;;;;;2.55;1.30;;;;;;;;;;5002511;28;20046;-70
2022/02/14 11:09:07;;;;;;;2.38;1.10;;;;;;;;;;5011079;28;20066;-70
2022/02/14 11:11:38;;;;;;;7.07;1.50;;;;;;;;;;5009945;28;20486;-70
2022/02/14 11:14:12;;;;;;;7.15;1.20;;;;;;;;;;5006991;28;20053;-71
2022/02/14 11:16:41;;;;;;;3.35;1.02;;;;;;;;;;5007521;28;20093;-70
2022/02/14 11:19:11;;;;;;;3.85;1.17;;;;;;;;;;5009612;28;20058;-70
2022/02/14 11:21:40;;;;;;;3.72;1.08;;;;;;;;;;5010672;28;20088;-70
2022/02/14 11:24:24;;;;;;;4.43;1.17;;;;;;;;;;5007072;28;20601;-70
2022/02/14 11:26:59;;;;;;;3.67;1.25;;;;;;;;;;5009670;28;20048;-70
2022/02/14 11:29:42;;;;;;;7.18;1.25;;;;;;;;;;4983640;28;20494;-71
2022/02/14 11:32:18;;;;;;;2.53;1.00;;;;;;;;;;331960;28;10022834;-70
2022/02/14 11:34:57;;;;;;;5.18;1.45;;;;;;;;;;5007975;28;20057;-70
2022/02/14 11:37:46;;;;;;;6.32;1.17;;;;;;;;;;5008915;28;20093;-71
2022/02/14 11:40:28;;;;;;;4.32;1.52;;;;;;;;;;5009139;28;20049;-70
2022/02/14 11:43:18;;;;;;;3.67;1.27;;;;;;;;;;5009977;28;20042;-70
2022/02/14 11:46:17;;;;;;;2.45;1.23;;;;;;;;;;5009104;28;20072;-71
2022/02/14 11:48:47;;;;;;;4.22;1.50;;;;;;;;;;5007564;28;20163;-70
2022/02/14 11:51:17;;;;;;;4.80;1.10;;;;;;;;;;5009268;28;20045;-69
2022/02/14 11:53:47;;;;;;;3.58;1.40;;;;;;;;;;5014241;28;20077;-69
2022/02/14 11:56:32;;;;;;;5.10;1.20;;;;;;;;;;5007464;28;20046;-69
2022/02/14 11:59:16;;;;;;;4.78;1.50;;;;;;;;;;5007764;28;20100;-69
2022/02/14 12:02:01;;;;;;;5.45;1.10;;;;;;;;;;5007553;28;20084;-69
2022/02/14 12:04:41;;;;;;;5.45;1.42;;;;;;;;;;5006642;28;20413;-70
2022/02/14 12:07:27;;;;;;;4.93;1.40;;;;;;;;;;5004192;28;20192;-70
2022/02/14 12:10:14;;;;;;;3.85;1.20;;;;;;;;;;5008819;28;20073;-70
2022/02/14 12:13:03;;;;;;;1.95;1.05;;;;;;;;;;5008695;28;20086;-71
2022/02/14 12:21:34;;;;;;;5.25;1.40;;;;;;;;;;1752497;28;10022613;-69
2022/02/14 12:24:13;;;;;;;3.40;1.40;;;;;;;;;;3967367;28;10001047;-69
2022/02/14 12:26:42;;;;;;;1.67;1.13;;;;;;;;;;5008523;28;20062;-70
2022/02/14 12:32:06;;;;;;;3.38;1.30;;;;;;;;;;5007363;28;20053;-70
2022/02/14 12:34:37;;;;;;;2.35;1.20;;;;;;;;;;5007086;28;20076;-69
2022/02/14 12:37:08;;;;;;;3.38;1.38;;;;;;;;;;5006751;28;20042;-69
2022/02/14 12:39:38;;;;;;;4.55;1.50;;;;;;;;;;5008004;28;20141;-72
2022/02/14 12:42:12;;;;;;;3.92;1.33;;;;;;;;;;5007730;28;20054;-71
2022/02/14 12:44:41;;;;;;;4.43;1.33;;;;;;;;;;5007822;28;20410;-70
2022/02/14 12:47:10;;;;;;;3.38;1.60;;;;;;;;;;5019257;28;20486;-70
2022/02/14 12:49:42;;;;;;;3.78;1.75;;;;;;;;;;5006210;28;20085;-69
2022/02/14 12:52:14;;;;;;;5.85;1.58;;;;;;;;;;5008268;28;20601;-69
2022/02/14 12:54:55;;;;;;;2.53;1.33;;;;;;;;;;5002074;28;20050;-69
2022/02/14 12:57:38;;;;;;;3.17;1.60;;;;;;;;;;4993303;28;20049;-69
2022/02/14 13:00:20;;;;;;;3.17;1.13;;;;;;;;;;5007870;28;20406;-69
2022/02/14 13:02:50;;;;;;;5.15;1.30;;;;;;;;;;5011628;28;20573;-69
2022/02/14 13:05:21;;;;;;;4.18;1.50;;;;;;;;;;5010100;28;20513;-69
2022/02/14 13:07:50;;;;;;;5.32;1.20;;;;;;;;;;5012057;28;20414;-70
2022/02/14 13:10:19;;;;;;;3.03;1.35;;;;;;;;;;5012856;28;20160;-69
2022/02/14 13:13:00;;;;;;;3.10;1.30;;;;;;;;;;5001359;28;20120;-70
2022/02/14 13:15:29;;;;;;;3.80;1.50;;;;;;;;;;5010436;28;20120;-72
2022/02/14 13:18:07;;;;;;;7.18;1.55;;;;;;;;;;5004299;28;20053;-70
2022/02/14 13:20:39;;;;;;;2.97;1.50;;;;;;;;;;5011482;28;20052;-70
2022/02/14 13:23:07;;;;;;;4.50;1.55;;;;;;;;;;5011120;28;20049;-69
2022/02/14 13:25:52;;;;;;;6.05;1.55;;;;;;;;;;5001277;28;20513;-69
2022/02/14 13:28:22;;;;;;;3.95;1.70;;;;;;;;;;5005995;28;20085;-70
2022/02/14 13:30:52;;;;;;;3.67;1.45;;;;;;;;;;5010827;28;20421;-70
2022/02/14 13:33:22;;;;;;;2.67;1.30;;;;;;;;;;5007541;28;20096;-70
2022/02/14 13:35:53;;;;;;;4.60;1.65;;;;;;;;;;5007884;28;20088;-71
2022/02/14 13:38:33;;;;;;;4.03;1.90;;;;;;;;;;5008496;28;20077;-71
2022/02/14 13:41:03;;;;;;;2.65;1.58;;;;;;;;;;5004419;28;20046;-69
2022/02/14 13:43:40;;;;;;;7.82;1.90;;;;;;;;;;5007915;28;20054;-71
2022/02/14 13:46:12;;;;;;;4.80;1.40;;;;;;;;;;5008441;28;20046;-69
2022/02/14 13:48:43;;;;;;;4.57;1.92;;;;;;;;;;5012126;28;20056;-70
2022/02/14 13:51:20;;;;;;;3.88;1.70;;;;;;;;;;5011952;28;20060;-73
2022/02/14 13:53:56;;;;;;;2.97;1.60;;;;;;;;;;5011329;28;20050;-72
2022/02/14 13:56:25;;;;;;;3.10;1.50;;;;;;;;;;5007089;28;20046;-70
2022/02/14 13:58:54;;;;;;;2.85;1.38;;;;;;;;;;4995097;28;20504;-72
2022/02/14 14:01:24;;;;;;;4.93;1.60;;;;;;;;;;4989631;28;20050;-70
2022/02/14 14:03:53;;;;;;;5.03;1.50;;;;;;;;;;4991120;28;20486;-70
2022/02/14 14:06:28;;;;;;;4.72;1.63;;;;;;;;;;4990536;28;20046;-71
2022/02/14 14:08:57;;;;;;;;;;;;;;;;;;4992623;28;20182;-70
2022/02/14 14:11:46;;;;;;;2.57;1.92;;;;;;;;;;1840784;28;10022793;-72
2022/02/14 14:14:29;;;;;;;4.75;2.33;;;;;;;;;;3956555;28;10001502;-71
2022/02/14 14:17:02;;;;;;;7.85;2.78;;;;;;;;;;4984241;28;20054;-71
2022/02/14 14:19:31;;;;;;;4.43;2.47;;;;;;;;;;4990031;28;20384;-71
2022/02/14 14:22:01;;;;;;;5.68;2.50;;;;;;;;;;4987909;28;20054;-71
2022/02/14 14:24:30;;;;;;;4.75;2.65;;;;;;;;;;4989559;28;20405;-71
2022/02/14 14:26:59;;;;;;;7.75;2.70;;;;;;;;;;4990598;28;20042;-71
2022/02/14 14:29:28;;;;;;;5.60;2.80;;;;;;;;;;4988527;28;20050;-71
2022/02/14 14:31:59;;;;;;;9.07;3.30;;;;;;;;;;4984648;28;20042;-72
2022/02/14 14:34:28;;;;;;;7.80;3.50;;;;;;;;;;4988935;28;20053;-72
2022/02/14 14:36:57;;;;;;;5.57;3.10;;;;;;;;;;4980437;28;20046;-71
2022/02/14 14:39:27;;;;;;;6.80;3.38;;;;;;;;;;4989327;28;20038;-70
2022/02/14 14:41:56;;;;;;;6.35;3.30;;;;;;;;;;4989523;28;20153;-70
2022/02/14 14:44:26;;;;;;;6.03;2.70;;;;;;;;;;4990619;28;20078;-72
2022/02/14 14:46:56;;;;;;;7.25;3.00;;;;;;;;;;4989833;28;20043;-69
2022/02/14 14:49:26;;;;;;;3.15;2.50;;;;;;;;;;4990237;28;20214;-69
2022/02/14 14:51:55;;;;;;;6.35;3.28;;;;;;;;;;4991127;28;20070;-70
2022/02/14 14:54:29;;;;;;;5.75;3.13;;;;;;;;;;4990188;28;20105;-70
2022/02/14 14:57:01;;;;;;;6.20;2.72;;;;;;;;;;4986169;28;20054;-70
2022/02/14 14:59:31;;;;;;;7.30;2.65;;;;;;;;;;5005263;28;20790;-71
2022/02/14 15:02:00;;;;;;;5.85;3.25;;;;;;;;;;5005912;28;20042;-70
2022/02/14 15:04:29;;;;;;;8.32;3.42;;;;;;;;;;5005227;28;20137;-70
2022/02/14 15:07:14;;;;;;;7.03;2.68;;;;;;;;;;795991;28;10003289;-70
2022/02/14 15:09:43;;;;;;;7.25;3.00;;;;;;;;;;5002692;28;20265;-70
2022/02/14 15:12:14;;;;;;;8.48;3.10;;;;;;;;;;5010175;28;20049;-70